sensor_id;sensor_type;location;lat;lon;timestamp;P1;durP1;ratioP1;P2;durP2;ratioP2
46675;SDS011;32412;51.478;5.694;2023-04-24T00:01:31;18.42;;;10.82;;
46675;SDS011;32412;51.478;5.694;2023-04-24T00:04:14;22.70;;;12.20;;
46675;SDS011;32412;51.478;5.694;2023-04-24T00:10:10;20.73;;;12.60;;
46675;SDS011;32412;51.478;5.694;2023-04-24T00:12:40;21.95;;;13.38;;
46675;SDS011;32412;51.478;5.694;2023-04-24T00:15:10;20.08;;;13.75;;
46675;SDS011;32412;51.478;5.694;2023-04-24T00:17:36;19.33;;;13.18;;
46675;SDS011;32412;51.478;5.694;2023-04-24T00:20:10;21.33;;;13.52;;
46675;SDS011;32412;51.478;5.694;2023-04-24T00:22:36;21.73;;;12.93;;
46675;SDS011;32412;51.478;5.694;2023-04-24T00:25:02;20.90;;;12.95;;
46675;SDS011;32412;51.478;5.694;2023-04-24T00:27:28;16.52;;;12.43;;
46675;SDS011;32412;51.478;5.694;2023-04-24T00:29:55;22.67;;;12.07;;
46675;SDS011;32412;51.478;5.694;2023-04-24T00:32:26;19.88;;;12.02;;
46675;SDS011;32412;51.478;5.694;2023-04-24T00:34:59;18.70;;;11.70;;
46675;SDS011;32412;51.478;5.694;2023-04-24T00:37:39;19.75;;;11.38;;
46675;SDS011;32412;51.478;5.694;2023-04-24T00:40:05;16.95;;;11.40;;
46675;SDS011;32412;51.478;5.694;2023-04-24T00:42:36;17.55;;;11.40;;
46675;SDS011;32412;51.478;5.694;2023-04-24T00:45:02;18.13;;;11.98;;
46675;SDS011;32412;51.478;5.694;2023-04-24T00:47:41;18.90;;;11.82;;
46675;SDS011;32412;51.478;5.694;2023-04-24T00:50:14;22.15;;;11.57;;
46675;SDS011;32412;51.478;5.694;2023-04-24T00:52:46;18.35;;;11.23;;
46675;SDS011;32412;51.478;5.694;2023-04-24T00:55:12;20.23;;;12.35;;
46675;SDS011;32412;51.478;5.694;2023-04-24T00:57:43;21.20;;;12.48;;
46675;SDS011;32412;51.478;5.694;2023-04-24T01:00:10;20.80;;;13.02;;
46675;SDS011;32412;51.478;5.694;2023-04-24T01:02:40;26.25;;;13.77;;
46675;SDS011;32412;51.478;5.694;2023-04-24T01:05:14;27.17;;;15.15;;
46675;SDS011;32412;51.478;5.694;2023-04-24T01:07:44;28.40;;;14.77;;
46675;SDS011;32412;51.478;5.694;2023-04-24T01:10:14;25.55;;;14.82;;
46675;SDS011;32412;51.478;5.694;2023-04-24T01:12:46;25.02;;;15.73;;
46675;SDS011;32412;51.478;5.694;2023-04-24T01:15:11;28.55;;;16.80;;
46675;SDS011;32412;51.478;5.694;2023-04-24T01:17:37;28.30;;;15.43;;
46675;SDS011;32412;51.478;5.694;2023-04-24T01:20:04;28.23;;;16.48;;
46675;SDS011;32412;51.478;5.694;2023-04-24T01:22:31;29.10;;;16.05;;
46675;SDS011;32412;51.478;5.694;2023-04-24T01:24:58;31.67;;;16.52;;
46675;SDS011;32412;51.478;5.694;2023-04-24T01:27:24;26.02;;;16.20;;
46675;SDS011;32412;51.478;5.694;2023-04-24T01:29:52;28.10;;;16.63;;
46675;SDS011;32412;51.478;5.694;2023-04-24T01:32:18;30.30;;;17.40;;
46675;SDS011;32412;51.478;5.694;2023-04-24T01:34:45;31.42;;;15.93;;
46675;SDS011;32412;51.478;5.694;2023-04-24T01:37:11;33.78;;;17.20;;
46675;SDS011;32412;51.478;5.694;2023-04-24T01:39:37;32.72;;;18.30;;
46675;SDS011;32412;51.478;5.694;2023-04-24T01:42:04;31.90;;;18.27;;
46675;SDS011;32412;51.478;5.694;2023-04-24T01:44:30;32.50;;;17.52;;
46675;SDS011;32412;51.478;5.694;2023-04-24T01:47:00;31.25;;;18.70;;
46675;SDS011;32412;51.478;5.694;2023-04-24T01:49:29;31.75;;;18.23;;
46675;SDS011;32412;51.478;5.694;2023-04-24T01:51:56;31.75;;;17.65;;
46675;SDS011;32412;51.478;5.694;2023-04-24T01:54:21;30.70;;;17.48;;
46675;SDS011;32412;51.478;5.694;2023-04-24T01:56:49;36.90;;;18.10;;
46675;SDS011;32412;51.478;5.694;2023-04-24T01:59:17;39.03;;;17.83;;
46675;SDS011;32412;51.478;5.694;2023-04-24T02:01:45;31.58;;;18.15;;
46675;SDS011;32412;51.478;5.694;2023-04-24T02:04:14;36.90;;;18.90;;
46675;SDS011;32412;51.478;5.694;2023-04-24T02:06:42;29.13;;;18.35;;
46675;SDS011;32412;51.478;5.694;2023-04-24T02:09:10;34.65;;;19.55;;
46675;SDS011;32412;51.478;5.694;2023-04-24T02:11:39;35.50;;;20.13;;
46675;SDS011;32412;51.478;5.694;2023-04-24T02:14:05;40.38;;;20.45;;
46675;SDS011;32412;51.478;5.694;2023-04-24T02:16:31;33.63;;;19.02;;
46675;SDS011;32412;51.478;5.694;2023-04-24T02:19:03;39.05;;;20.55;;
46675;SDS011;32412;51.478;5.694;2023-04-24T02:21:29;30.85;;;19.75;;
46675;SDS011;32412;51.478;5.694;2023-04-24T02:23:58;32.33;;;19.67;;
46675;SDS011;32412;51.478;5.694;2023-04-24T02:26:26;37.50;;;20.02;;
46675;SDS011;32412;51.478;5.694;2023-04-24T02:28:56;35.80;;;19.58;;
46675;SDS011;32412;51.478;5.694;2023-04-24T02:31:22;35.65;;;19.67;;
46675;SDS011;32412;51.478;5.694;2023-04-24T02:33:48;35.88;;;20.02;;
46675;SDS011;32412;51.478;5.694;2023-04-24T02:36:13;37.28;;;19.85;;
46675;SDS011;32412;51.478;5.694;2023-04-24T02:38:39;37.67;;;19.83;;
46675;SDS011;32412;51.478;5.694;2023-04-24T02:41:05;34.13;;;19.75;;
46675;SDS011;32412;51.478;5.694;2023-04-24T02:43:32;33.75;;;18.95;;
46675;SDS011;32412;51.478;5.694;2023-04-24T02:45:58;35.60;;;20.98;;
46675;SDS011;32412;51.478;5.694;2023-04-24T02:48:24;30.40;;;18.75;;
46675;SDS011;32412;51.478;5.694;2023-04-24T02:50:52;34.58;;;19.23;;
46675;SDS011;32412;51.478;5.694;2023-04-24T02:53:18;32.25;;;18.48;;
46675;SDS011;32412;51.478;5.694;2023-04-24T02:55:44;35.80;;;19.30;;
46675;SDS011;32412;51.478;5.694;2023-04-24T02:58:10;30.98;;;18.55;;
46675;SDS011;32412;51.478;5.694;2023-04-24T03:00:37;36.55;;;17.75;;
46675;SDS011;32412;51.478;5.694;2023-04-24T03:03:03;29.92;;;18.17;;
46675;SDS011;32412;51.478;5.694;2023-04-24T03:05:30;31.23;;;17.13;;
46675;SDS011;32412;51.478;5.694;2023-04-24T03:07:56;28.92;;;17.77;;
46675;SDS011;32412;51.478;5.694;2023-04-24T03:10:22;25.77;;;16.48;;
46675;SDS011;32412;51.478;5.694;2023-04-24T03:12:47;29.42;;;16.40;;
46675;SDS011;32412;51.478;5.694;2023-04-24T03:15:14;25.40;;;16.58;;
46675;SDS011;32412;51.478;5.694;2023-04-24T03:17:39;27.05;;;15.60;;
46675;SDS011;32412;51.478;5.694;2023-04-24T03:20:05;28.13;;;15.20;;
46675;SDS011;32412;51.478;5.694;2023-04-24T03:22:33;28.45;;;15.05;;
46675;SDS011;32412;51.478;5.694;2023-04-24T03:25:03;26.60;;;14.65;;
46675;SDS011;32412;51.478;5.694;2023-04-24T03:27:43;23.48;;;13.93;;
46675;SDS011;32412;51.478;5.694;2023-04-24T03:30:09;21.42;;;13.93;;
46675;SDS011;32412;51.478;5.694;2023-04-24T03:32:35;22.63;;;14.02;;
46675;SDS011;32412;51.478;5.694;2023-04-24T03:35:05;22.63;;;13.75;;
46675;SDS011;32412;51.478;5.694;2023-04-24T03:37:45;23.00;;;13.65;;
46675;SDS011;32412;51.478;5.694;2023-04-24T03:40:19;26.45;;;14.00;;
46675;SDS011;32412;51.478;5.694;2023-04-24T03:42:59;20.55;;;13.93;;
46675;SDS011;32412;51.478;5.694;2023-04-24T03:45:30;20.42;;;13.07;;
46675;SDS011;32412;51.478;5.694;2023-04-24T03:47:56;23.98;;;13.50;;
46675;SDS011;32412;51.478;5.694;2023-04-24T03:50:24;22.65;;;12.60;;
46675;SDS011;32412;51.478;5.694;2023-04-24T03:52:57;22.63;;;12.98;;
46675;SDS011;32412;51.478;5.694;2023-04-24T03:55:24;22.40;;;13.30;;
46675;SDS011;32412;51.478;5.694;2023-04-24T03:57:51;21.40;;;12.45;;
46675;SDS011;32412;51.478;5.694;2023-04-24T04:00:18;23.15;;;13.00;;
46675;SDS011;32412;51.478;5.694;2023-04-24T04:02:46;19.85;;;12.63;;
46675;SDS011;32412;51.478;5.694;2023-04-24T04:08:34;22.02;;;13.02;;
46675;SDS011;32412;51.478;5.694;2023-04-24T04:11:03;21.65;;;12.07;;
46675;SDS011;32412;51.478;5.694;2023-04-24T04:13:29;20.35;;;11.57;;
46675;SDS011;32412;51.478;5.694;2023-04-24T04:15:55;18.25;;;11.50;;
46675;SDS011;32412;51.478;5.694;2023-04-24T04:18:21;17.15;;;11.45;;
46675;SDS011;32412;51.478;5.694;2023-04-24T04:20:46;16.27;;;11.52;;
46675;SDS011;32412;51.478;5.694;2023-04-24T04:23:12;18.58;;;12.82;;
46675;SDS011;32412;51.478;5.694;2023-04-24T04:25:38;19.95;;;11.77;;
46675;SDS011;32412;51.478;5.694;2023-04-24T04:28:03;20.88;;;12.20;;
46675;SDS011;32412;51.478;5.694;2023-04-24T04:30:32;23.55;;;12.48;;
46675;SDS011;32412;51.478;5.694;2023-04-24T04:32:58;18.23;;;11.82;;
46675;SDS011;32412;51.478;5.694;2023-04-24T04:35:27;19.77;;;11.70;;
46675;SDS011;32412;51.478;5.694;2023-04-24T04:37:55;22.15;;;11.88;;
46675;SDS011;32412;51.478;5.694;2023-04-24T04:40:24;18.75;;;12.10;;
46675;SDS011;32412;51.478;5.694;2023-04-24T04:42:52;21.13;;;12.80;;
46675;SDS011;32412;51.478;5.694;2023-04-24T04:45:18;20.40;;;11.32;;
46675;SDS011;32412;51.478;5.694;2023-04-24T04:47:48;14.68;;;10.43;;
46675;SDS011;32412;51.478;5.694;2023-04-24T04:50:17;17.98;;;11.18;;
46675;SDS011;32412;51.478;5.694;2023-04-24T04:52:48;20.73;;;12.63;;
46675;SDS011;32412;51.478;5.694;2023-04-24T04:55:14;19.08;;;11.90;;
46675;SDS011;32412;51.478;5.694;2023-04-24T04:57:40;18.42;;;11.98;;
46675;SDS011;32412;51.478;5.694;2023-04-24T05:00:06;21.20;;;12.30;;
46675;SDS011;32412;51.478;5.694;2023-04-24T05:02:35;17.25;;;11.68;;
46675;SDS011;32412;51.478;5.694;2023-04-24T05:05:03;18.40;;;12.07;;
46675;SDS011;32412;51.478;5.694;2023-04-24T05:07:31;27.45;;;11.80;;
46675;SDS011;32412;51.478;5.694;2023-04-24T05:09:57;24.13;;;12.05;;
46675;SDS011;32412;51.478;5.694;2023-04-24T05:12:23;20.42;;;12.13;;
46675;SDS011;32412;51.478;5.694;2023-04-24T05:14:49;17.98;;;11.95;;
46675;SDS011;32412;51.478;5.694;2023-04-24T05:17:17;20.15;;;13.10;;
46675;SDS011;32412;51.478;5.694;2023-04-24T05:19:46;18.45;;;11.40;;
46675;SDS011;32412;51.478;5.694;2023-04-24T05:22:14;17.48;;;11.50;;
46675;SDS011;32412;51.478;5.694;2023-04-24T05:24:40;16.58;;;11.40;;
46675;SDS011;32412;51.478;5.694;2023-04-24T05:27:06;20.55;;;12.38;;
46675;SDS011;32412;51.478;5.694;2023-04-24T05:29:32;17.67;;;11.25;;
46675;SDS011;32412;51.478;5.694;2023-04-24T05:31:58;16.65;;;10.30;;
46675;SDS011;32412;51.478;5.694;2023-04-24T05:34:25;17.20;;;10.70;;
46675;SDS011;32412;51.478;5.694;2023-04-24T05:36:53;15.13;;;9.63;;
46675;SDS011;32412;51.478;5.694;2023-04-24T05:39:20;16.10;;;8.73;;
46675;SDS011;32412;51.478;5.694;2023-04-24T05:41:45;11.98;;;7.68;;
46675;SDS011;32412;51.478;5.694;2023-04-24T05:44:11;9.10;;;6.82;;
46675;SDS011;32412;51.478;5.694;2023-04-24T05:46:37;9.18;;;6.38;;
46675;SDS011;32412;51.478;5.694;2023-04-24T05:49:03;7.68;;;5.43;;
46675;SDS011;32412;51.478;5.694;2023-04-24T05:51:29;7.65;;;5.13;;
46675;SDS011;32412;51.478;5.694;2023-04-24T05:53:55;6.38;;;4.82;;
46675;SDS011;32412;51.478;5.694;2023-04-24T05:56:21;6.80;;;4.97;;
46675;SDS011;32412;51.478;5.694;2023-04-24T05:58:48;7.90;;;4.80;;
46675;SDS011;32412;51.478;5.694;2023-04-24T06:01:13;10.73;;;4.07;;
46675;SDS011;32412;51.478;5.694;2023-04-24T06:03:40;8.93;;;4.07;;
46675;SDS011;32412;51.478;5.694;2023-04-24T06:06:06;6.10;;;3.00;;
46675;SDS011;32412;51.478;5.694;2023-04-24T06:08:33;4.25;;;2.72;;
46675;SDS011;32412;51.478;5.694;2023-04-24T06:11:00;5.47;;;3.28;;
46675;SDS011;32412;51.478;5.694;2023-04-24T06:13:26;6.55;;;2.50;;
46675;SDS011;32412;51.478;5.694;2023-04-24T06:15:52;4.53;;;2.70;;
46675;SDS011;32412;51.478;5.694;2023-04-24T06:18:18;3.78;;;2.03;;
46675;SDS011;32412;51.478;5.694;2023-04-24T06:20:44;2.45;;;1.65;;
46675;SDS011;32412;51.478;5.694;2023-04-24T06:23:10;2.70;;;1.63;;
46675;SDS011;32412;51.478;5.694;2023-04-24T06:25:36;5.13;;;2.00;;
46675;SDS011;32412;51.478;5.694;2023-04-24T06:28:02;4.28;;;1.85;;
46675;SDS011;32412;51.478;5.694;2023-04-24T06:30:28;4.82;;;1.75;;
46675;SDS011;32412;51.478;5.694;2023-04-24T06:32:54;4.45;;;1.70;;
46675;SDS011;32412;51.478;5.694;2023-04-24T06:35:20;2.50;;;1.80;;
46675;SDS011;32412;51.478;5.694;2023-04-24T06:37:46;4.55;;;2.28;;
46675;SDS011;32412;51.478;5.694;2023-04-24T06:40:12;3.85;;;2.45;;
46675;SDS011;32412;51.478;5.694;2023-04-24T06:42:37;4.50;;;2.90;;
46675;SDS011;32412;51.478;5.694;2023-04-24T06:45:09;6.13;;;3.08;;
46675;SDS011;32412;51.478;5.694;2023-04-24T06:47:35;5.55;;;2.97;;
46675;SDS011;32412;51.478;5.694;2023-04-24T06:50:04;5.13;;;3.33;;
46675;SDS011;32412;51.478;5.694;2023-04-24T06:52:30;4.15;;;3.00;;
46675;SDS011;32412;51.478;5.694;2023-04-24T06:55:02;3.25;;;2.70;;
46675;SDS011;32412;51.478;5.694;2023-04-24T06:57:28;5.00;;;2.42;;
46675;SDS011;32412;51.478;5.694;2023-04-24T06:59:54;3.35;;;2.20;;
46675;SDS011;32412;51.478;5.694;2023-04-24T07:02:23;2.88;;;2.58;;
46675;SDS011;32412;51.478;5.694;2023-04-24T07:04:49;6.00;;;2.85;;
46675;SDS011;32412;51.478;5.694;2023-04-24T07:07:15;7.78;;;4.13;;
46675;SDS011;32412;51.478;5.694;2023-04-24T07:09:41;7.85;;;4.40;;
46675;SDS011;32412;51.478;5.694;2023-04-24T07:12:08;8.88;;;6.65;;
46675;SDS011;32412;51.478;5.694;2023-04-24T07:14:35;11.75;;;8.20;;
46675;SDS011;32412;51.478;5.694;2023-04-24T07:17:07;18.30;;;11.82;;
46675;SDS011;32412;51.478;5.694;2023-04-24T07:19:38;20.98;;;10.50;;
46675;SDS011;32412;51.478;5.694;2023-04-24T07:22:03;22.10;;;12.00;;
46675;SDS011;32412;51.478;5.694;2023-04-24T07:24:30;19.77;;;11.30;;
46675;SDS011;32412;51.478;5.694;2023-04-24T07:26:57;26.70;;;15.50;;
46675;SDS011;32412;51.478;5.694;2023-04-24T07:29:23;20.08;;;11.43;;
46675;SDS011;32412;51.478;5.694;2023-04-24T07:31:49;24.85;;;13.02;;
46675;SDS011;32412;51.478;5.694;2023-04-24T07:34:15;25.33;;;13.52;;
46675;SDS011;32412;51.478;5.694;2023-04-24T07:36:44;26.80;;;13.15;;
46675;SDS011;32412;51.478;5.694;2023-04-24T07:39:10;24.35;;;12.98;;
46675;SDS011;32412;51.478;5.694;2023-04-24T07:41:36;28.60;;;13.68;;
46675;SDS011;32412;51.478;5.694;2023-04-24T07:44:02;25.05;;;13.05;;
46675;SDS011;32412;51.478;5.694;2023-04-24T07:46:29;25.48;;;13.52;;
46675;SDS011;32412;51.478;5.694;2023-04-24T07:48:55;25.63;;;13.02;;
46675;SDS011;32412;51.478;5.694;2023-04-24T07:51:21;23.50;;;11.30;;
46675;SDS011;32412;51.478;5.694;2023-04-24T07:53:47;18.00;;;10.00;;
46675;SDS011;32412;51.478;5.694;2023-04-24T07:56:12;21.88;;;12.02;;
46675;SDS011;32412;51.478;5.694;2023-04-24T07:58:38;24.50;;;12.32;;
46675;SDS011;32412;51.478;5.694;2023-04-24T08:01:04;25.98;;;12.18;;
46675;SDS011;32412;51.478;5.694;2023-04-24T08:03:30;37.53;;;21.20;;
46675;SDS011;32412;51.478;5.694;2023-04-24T08:05:56;25.30;;;12.30;;
46675;SDS011;32412;51.478;5.694;2023-04-24T08:08:22;19.23;;;12.23;;
46675;SDS011;32412;51.478;5.694;2023-04-24T08:10:50;19.40;;;10.57;;
46675;SDS011;32412;51.478;5.694;2023-04-24T08:13:18;19.27;;;8.15;;
46675;SDS011;32412;51.478;5.694;2023-04-24T08:15:47;35.38;;;18.35;;
46675;SDS011;32412;51.478;5.694;2023-04-24T08:18:13;32.45;;;17.25;;
46675;SDS011;32412;51.478;5.694;2023-04-24T08:20:40;21.42;;;8.80;;
46675;SDS011;32412;51.478;5.694;2023-04-24T08:23:06;22.52;;;9.25;;
46675;SDS011;32412;51.478;5.694;2023-04-24T08:25:37;22.33;;;9.13;;
46675;SDS011;32412;51.478;5.694;2023-04-24T08:28:06;22.55;;;9.18;;
46675;SDS011;32412;51.478;5.694;2023-04-24T08:30:34;22.77;;;11.05;;
46675;SDS011;32412;51.478;5.694;2023-04-24T08:32:59;21.23;;;8.45;;
46675;SDS011;32412;51.478;5.694;2023-04-24T08:35:25;22.92;;;9.43;;
46675;SDS011;32412;51.478;5.694;2023-04-24T08:37:52;20.40;;;8.38;;
46675;SDS011;32412;51.478;5.694;2023-04-24T08:40:18;23.23;;;9.23;;
46675;SDS011;32412;51.478;5.694;2023-04-24T08:42:51;21.63;;;7.53;;
46675;SDS011;32412;51.478;5.694;2023-04-24T08:45:20;18.58;;;7.88;;
46675;SDS011;32412;51.478;5.694;2023-04-24T08:47:46;20.52;;;8.68;;
46675;SDS011;32412;51.478;5.694;2023-04-24T08:50:16;21.70;;;9.35;;
46675;SDS011;32412;51.478;5.694;2023-04-24T08:52:42;22.70;;;10.07;;
46675;SDS011;32412;51.478;5.694;2023-04-24T08:55:08;25.30;;;9.48;;
46675;SDS011;32412;51.478;5.694;2023-04-24T08:57:34;26.52;;;9.75;;
46675;SDS011;32412;51.478;5.694;2023-04-24T09:00:03;23.77;;;8.98;;
46675;SDS011;32412;51.478;5.694;2023-04-24T09:02:31;22.90;;;10.25;;
46675;SDS011;32412;51.478;5.694;2023-04-24T09:04:59;27.15;;;9.80;;
46675;SDS011;32412;51.478;5.694;2023-04-24T09:07:25;27.33;;;9.55;;
46675;SDS011;32412;51.478;5.694;2023-04-24T09:09:52;27.23;;;9.25;;
46675;SDS011;32412;51.478;5.694;2023-04-24T09:12:19;26.23;;;7.50;;
46675;SDS011;32412;51.478;5.694;2023-04-24T09:14:45;24.63;;;8.02;;
46675;SDS011;32412;51.478;5.694;2023-04-24T09:17:13;22.45;;;7.03;;
46675;SDS011;32412;51.478;5.694;2023-04-24T09:19:43;19.65;;;6.30;;
46675;SDS011;32412;51.478;5.694;2023-04-24T09:22:09;21.70;;;5.50;;
46675;SDS011;32412;51.478;5.694;2023-04-24T09:24:39;17.88;;;5.35;;
46675;SDS011;32412;51.478;5.694;2023-04-24T09:27:05;16.73;;;6.38;;
46675;SDS011;32412;51.478;5.694;2023-04-24T09:29:32;16.30;;;5.20;;
46675;SDS011;32412;51.478;5.694;2023-04-24T09:31:58;14.57;;;4.22;;
46675;SDS011;32412;51.478;5.694;2023-04-24T09:34:27;16.88;;;5.03;;
46675;SDS011;32412;51.478;5.694;2023-04-24T09:36:55;12.50;;;4.10;;
46675;SDS011;32412;51.478;5.694;2023-04-24T09:39:21;19.02;;;4.78;;
46675;SDS011;32412;51.478;5.694;2023-04-24T09:41:50;10.63;;;4.57;;
46675;SDS011;32412;51.478;5.694;2023-04-24T09:44:21;17.45;;;4.20;;
46675;SDS011;32412;51.478;5.694;2023-04-24T09:46:51;11.60;;;3.83;;
46675;SDS011;32412;51.478;5.694;2023-04-24T09:49:22;12.98;;;4.70;;
46675;SDS011;32412;51.478;5.694;2023-04-24T09:51:50;15.73;;;4.15;;
46675;SDS011;32412;51.478;5.694;2023-04-24T09:54:17;13.88;;;4.70;;
46675;SDS011;32412;51.478;5.694;2023-04-24T09:56:47;10.75;;;4.35;;
46675;SDS011;32412;51.478;5.694;2023-04-24T09:59:15;9.88;;;3.83;;
46675;SDS011;32412;51.478;5.694;2023-04-24T10:01:42;11.25;;;3.97;;
46675;SDS011;32412;51.478;5.694;2023-04-24T10:04:53;15.25;;;4.15;;
46675;SDS011;32412;51.478;5.694;2023-04-24T10:07:02;13.68;;;4.30;;
46675;SDS011;32412;51.478;5.694;2023-04-24T10:09:34;10.40;;;3.88;;
46675;SDS011;32412;51.478;5.694;2023-04-24T10:12:00;9.68;;;3.85;;
46675;SDS011;32412;51.478;5.694;2023-04-24T10:14:27;8.73;;;3.22;;
46675;SDS011;32412;51.478;5.694;2023-04-24T10:16:53;10.95;;;2.92;;
46675;SDS011;32412;51.478;5.694;2023-04-24T10:19:21;6.00;;;2.30;;
46675;SDS011;32412;51.478;5.694;2023-04-24T10:21:50;6.57;;;2.15;;
46675;SDS011;32412;51.478;5.694;2023-04-24T10:24:17;7.60;;;2.42;;
46675;SDS011;32412;51.478;5.694;2023-04-24T10:26:45;5.82;;;2.20;;
46675;SDS011;32412;51.478;5.694;2023-04-24T10:29:13;5.97;;;1.85;;
46675;SDS011;32412;51.478;5.694;2023-04-24T10:31:43;10.43;;;1.90;;
46675;SDS011;32412;51.478;5.694;2023-04-24T10:34:11;8.95;;;2.20;;
46675;SDS011;32412;51.478;5.694;2023-04-24T10:36:53;12.52;;;2.25;;
46675;SDS011;32412;51.478;5.694;2023-04-24T10:39:21;14.70;;;1.83;;
46675;SDS011;32412;51.478;5.694;2023-04-24T10:41:48;6.15;;;2.00;;
46675;SDS011;32412;51.478;5.694;2023-04-24T10:44:14;10.02;;;2.05;;
46675;SDS011;32412;51.478;5.694;2023-04-24T10:46:46;7.43;;;2.03;;
46675;SDS011;32412;51.478;5.694;2023-04-24T10:49:30;3.42;;;1.60;;
46675;SDS011;32412;51.478;5.694;2023-04-24T10:52:00;5.82;;;1.48;;
46675;SDS011;32412;51.478;5.694;2023-04-24T10:59:45;6.15;;;1.40;;
46675;SDS011;32412;51.478;5.694;2023-04-24T11:02:14;3.65;;;1.08;;
46675;SDS011;32412;51.478;5.694;2023-04-24T11:04:40;5.50;;;1.40;;
46675;SDS011;32412;51.478;5.694;2023-04-24T11:07:08;4.55;;;1.05;;
46675;SDS011;32412;51.478;5.694;2023-04-24T11:09:35;4.15;;;0.82;;
46675;SDS011;32412;51.478;5.694;2023-04-24T11:12:05;6.57;;;1.00;;
46675;SDS011;32412;51.478;5.694;2023-04-24T11:17:38;4.55;;;0.90;;
46675;SDS011;32412;51.478;5.694;2023-04-24T11:20:08;4.40;;;1.20;;
46675;SDS011;32412;51.478;5.694;2023-04-24T11:22:41;2.55;;;0.82;;
46675;SDS011;32412;51.478;5.694;2023-04-24T11:25:09;6.00;;;1.05;;
46675;SDS011;32412;51.478;5.694;2023-04-24T11:27:43;4.60;;;0.80;;
46675;SDS011;32412;51.478;5.694;2023-04-24T11:30:16;4.38;;;0.80;;
46675;SDS011;32412;51.478;5.694;2023-04-24T11:32:43;3.50;;;0.95;;
46675;SDS011;32412;51.478;5.694;2023-04-24T11:35:16;4.43;;;1.17;;
46675;SDS011;32412;51.478;5.694;2023-04-24T11:37:44;6.47;;;1.45;;
46675;SDS011;32412;51.478;5.694;2023-04-24T11:40:13;4.63;;;1.00;;
46675;SDS011;32412;51.478;5.694;2023-04-24T11:42:44;5.40;;;1.00;;
46675;SDS011;32412;51.478;5.694;2023-04-24T11:47:38;5.72;;;1.10;;
46675;SDS011;32412;51.478;5.694;2023-04-24T11:50:05;5.97;;;1.30;;
46675;SDS011;32412;51.478;5.694;2023-04-24T11:52:33;9.68;;;1.35;;
46675;SDS011;32412;51.478;5.694;2023-04-24T11:55:03;3.88;;;1.00;;
46675;SDS011;32412;51.478;5.694;2023-04-24T11:57:29;3.95;;;1.30;;
46675;SDS011;32412;51.478;5.694;2023-04-24T12:00:02;4.40;;;1.15;;
46675;SDS011;32412;51.478;5.694;2023-04-24T12:02:30;8.13;;;1.70;;
46675;SDS011;32412;51.478;5.694;2023-04-24T12:04:56;5.22;;;1.20;;
46675;SDS011;32412;51.478;5.694;2023-04-24T12:07:22;2.28;;;1.10;;
46675;SDS011;32412;51.478;5.694;2023-04-24T12:09:58;4.57;;;1.00;;
46675;SDS011;32412;51.478;5.694;2023-04-24T12:12:28;4.65;;;1.25;;
46675;SDS011;32412;51.478;5.694;2023-04-24T12:14:57;3.65;;;1.02;;
46675;SDS011;32412;51.478;5.694;2023-04-24T12:17:24;3.60;;;1.05;;
46675;SDS011;32412;51.478;5.694;2023-04-24T12:19:59;5.13;;;0.70;;
46675;SDS011;32412;51.478;5.694;2023-04-24T12:25:09;1.35;;;0.90;;
46675;SDS011;32412;51.478;5.694;2023-04-24T12:27:35;3.70;;;1.00;;
46675;SDS011;32412;51.478;5.694;2023-04-24T12:30:03;3.25;;;1.02;;
46675;SDS011;32412;51.478;5.694;2023-04-24T12:32:30;3.38;;;0.90;;
46675;SDS011;32412;51.478;5.694;2023-04-24T12:34:56;1.67;;;0.88;;
46675;SDS011;32412;51.478;5.694;2023-04-24T12:37:26;1.98;;;0.90;;
46675;SDS011;32412;51.478;5.694;2023-04-24T12:42:34;0.85;;;0.80;;
46675;SDS011;32412;51.478;5.694;2023-04-24T12:45:07;3.05;;;0.93;;
46675;SDS011;32412;51.478;5.694;2023-04-24T12:47:33;4.10;;;0.85;;
46675;SDS011;32412;51.478;5.694;2023-04-24T12:50:00;3.40;;;1.02;;
46675;SDS011;32412;51.478;5.694;2023-04-24T12:52:27;2.85;;;0.90;;
46675;SDS011;32412;51.478;5.694;2023-04-24T12:54:55;3.10;;;0.80;;
46675;SDS011;32412;51.478;5.694;2023-04-24T12:57:25;3.35;;;0.80;;
46675;SDS011;32412;51.478;5.694;2023-04-24T12:59:57;2.20;;;0.73;;
46675;SDS011;32412;51.478;5.694;2023-04-24T13:02:24;4.07;;;0.88;;
46675;SDS011;32412;51.478;5.694;2023-04-24T13:04:52;2.55;;;1.00;;
46675;SDS011;32412;51.478;5.694;2023-04-24T13:07:19;1.27;;;0.80;;
46675;SDS011;32412;51.478;5.694;2023-04-24T13:09:48;1.55;;;0.60;;
46675;SDS011;32412;51.478;5.694;2023-04-24T13:12:14;3.20;;;1.20;;
46675;SDS011;32412;51.478;5.694;2023-04-24T13:14:43;0.77;;;0.50;;
46675;SDS011;32412;51.478;5.694;2023-04-24T13:17:14;2.85;;;0.68;;
46675;SDS011;32412;51.478;5.694;2023-04-24T13:19:41;2.83;;;0.60;;
46675;SDS011;32412;51.478;5.694;2023-04-24T13:22:09;3.85;;;1.13;;
46675;SDS011;32412;51.478;5.694;2023-04-24T13:24:35;3.10;;;0.80;;
46675;SDS011;32412;51.478;5.694;2023-04-24T13:27:02;2.70;;;0.93;;
46675;SDS011;32412;51.478;5.694;2023-04-24T13:29:28;3.10;;;0.85;;
46675;SDS011;32412;51.478;5.694;2023-04-24T13:31:54;4.88;;;0.80;;
46675;SDS011;32412;51.478;5.694;2023-04-24T13:34:24;4.50;;;1.23;;
46675;SDS011;32412;51.478;5.694;2023-04-24T13:36:51;2.60;;;1.08;;
46675;SDS011;32412;51.478;5.694;2023-04-24T13:39:20;3.15;;;0.80;;
46675;SDS011;32412;51.478;5.694;2023-04-24T13:41:47;3.88;;;0.85;;
46675;SDS011;32412;51.478;5.694;2023-04-24T13:44:16;2.05;;;0.70;;
46675;SDS011;32412;51.478;5.694;2023-04-24T13:46:43;3.22;;;0.88;;
46675;SDS011;32412;51.478;5.694;2023-04-24T13:49:10;4.53;;;1.10;;
46675;SDS011;32412;51.478;5.694;2023-04-24T13:51:42;3.42;;;0.80;;
46675;SDS011;32412;51.478;5.694;2023-04-24T13:54:08;2.60;;;0.75;;
46675;SDS011;32412;51.478;5.694;2023-04-24T13:56:34;2.90;;;0.90;;
46675;SDS011;32412;51.478;5.694;2023-04-24T13:59:00;1.85;;;0.98;;
46675;SDS011;32412;51.478;5.694;2023-04-24T14:01:26;2.63;;;1.10;;
46675;SDS011;32412;51.478;5.694;2023-04-24T14:03:52;4.55;;;1.20;;
46675;SDS011;32412;51.478;5.694;2023-04-24T14:06:18;2.38;;;1.20;;
46675;SDS011;32412;51.478;5.694;2023-04-24T14:08:45;2.85;;;1.25;;
46675;SDS011;32412;51.478;5.694;2023-04-24T14:11:11;4.40;;;1.10;;
46675;SDS011;32412;51.478;5.694;2023-04-24T14:13:37;3.08;;;1.13;;
46675;SDS011;32412;51.478;5.694;2023-04-24T14:16:03;2.53;;;1.20;;
46675;SDS011;32412;51.478;5.694;2023-04-24T14:18:29;7.10;;;1.63;;
46675;SDS011;32412;51.478;5.694;2023-04-24T14:20:55;2.83;;;1.40;;
46675;SDS011;32412;51.478;5.694;2023-04-24T14:23:21;9.10;;;1.50;;
46675;SDS011;32412;51.478;5.694;2023-04-24T14:25:47;8.25;;;1.30;;
46675;SDS011;32412;51.478;5.694;2023-04-24T14:28:17;2.67;;;0.90;;
46675;SDS011;32412;51.478;5.694;2023-04-24T14:30:49;4.80;;;1.67;;
46675;SDS011;32412;51.478;5.694;2023-04-24T14:33:15;4.28;;;1.30;;
46675;SDS011;32412;51.478;5.694;2023-04-24T14:35:41;6.55;;;1.55;;
46675;SDS011;32412;51.478;5.694;2023-04-24T14:38:07;2.55;;;1.40;;
46675;SDS011;32412;51.478;5.694;2023-04-24T14:40:33;4.97;;;1.27;;
46675;SDS011;32412;51.478;5.694;2023-04-24T14:43:00;1.30;;;1.10;;
46675;SDS011;32412;51.478;5.694;2023-04-24T14:45:26;3.60;;;1.20;;
46675;SDS011;32412;51.478;5.694;2023-04-24T14:47:52;4.60;;;1.38;;
46675;SDS011;32412;51.478;5.694;2023-04-24T14:50:18;3.03;;;1.33;;
46675;SDS011;32412;51.478;5.694;2023-04-24T14:52:44;2.75;;;1.02;;
46675;SDS011;32412;51.478;5.694;2023-04-24T14:55:10;4.20;;;1.17;;
46675;SDS011;32412;51.478;5.694;2023-04-24T14:57:36;3.03;;;1.05;;
46675;SDS011;32412;51.478;5.694;2023-04-24T15:00:03;6.47;;;1.08;;